<?xml version="1.0" encoding="UTF-8" standalone="no" ?>
<gpx xmlns="http://www.topografix.com/GPX/1/1" xmlns:xsi="http://www.w3.org/2001/XMLSchema-instance" xsi:schemaLocation="http://www.topografix.com/GPX/1/1 http://www.topografix.com/GPX/1/1/gpx.xsd" version="1.1" creator="VisuGPX - https://www.visugpx.com">
  <metadata>
    <name>Venise-Pamir J78 - Tadjikistan - Pamir Highway</name>
    <desc><![CDATA[Peu de circulation après Kulog.
Très beaux paysages, mais route défoncée en haut....]]></desc>
  </metadata>
  <trk>
    <name><![CDATA[Venise-Pamir J78 - Tadjikistan - Pamir Highway_1]]></name>
    <trkseg>
      <trkpt lat="37.80523" lon="69.62508">
        <ele>573.2</ele>
        <time>2018-08-18T02:11:01.000Z</time>
      </trkpt>
      <trkpt lat="37.8052" lon="69.62684">
        <ele>481.5</ele>
        <time>2018-08-18T02:15:16.000Z</time>
      </trkpt>
      <trkpt lat="37.80527" lon="69.63116">
        <ele>479</ele>
        <time>2018-08-18T02:16:17.000Z</time>
      </trkpt>
      <trkpt lat="37.80534" lon="69.63531">
        <ele>480.9</ele>
        <time>2018-08-18T02:17:18.000Z</time>
      </trkpt>
      <trkpt lat="37.80539" lon="69.63933">
        <ele>486.2</ele>
        <time>2018-08-18T02:18:19.000Z</time>
      </trkpt>
      <trkpt lat="37.80548" lon="69.64271">
        <ele>483.5</ele>
        <time>2018-08-18T02:19:20.000Z</time>
      </trkpt>
      <trkpt lat="37.80459" lon="69.64599">
        <ele>479</ele>
        <time>2018-08-18T02:20:21.000Z</time>
      </trkpt>
      <trkpt lat="37.80239" lon="69.64837">
        <ele>478.7</ele>
        <time>2018-08-18T02:21:22.000Z</time>
      </trkpt>
      <trkpt lat="37.8006" lon="69.65133">
        <ele>477.2</ele>
        <time>2018-08-18T02:22:23.000Z</time>
      </trkpt>
      <trkpt lat="37.80031" lon="69.65499">
        <ele>484.3</ele>
        <time>2018-08-18T02:23:24.000Z</time>
      </trkpt>
      <trkpt lat="37.80002" lon="69.65881">
        <ele>483.7</ele>
        <time>2018-08-18T02:24:25.000Z</time>
      </trkpt>
      <trkpt lat="37.80047" lon="69.66249">
        <ele>481.5</ele>
        <time>2018-08-18T02:25:26.000Z</time>
      </trkpt>
      <trkpt lat="37.80119" lon="69.66619">
        <ele>479.2</ele>
        <time>2018-08-18T02:26:27.000Z</time>
      </trkpt>
      <trkpt lat="37.80218" lon="69.66974">
        <ele>480.5</ele>
        <time>2018-08-18T02:27:28.000Z</time>
      </trkpt>
      <trkpt lat="37.80337" lon="69.67324">
        <ele>484.6</ele>
        <time>2018-08-18T02:28:29.000Z</time>
      </trkpt>
      <trkpt lat="37.80501" lon="69.67665">
        <ele>479.6</ele>
        <time>2018-08-18T02:29:29.000Z</time>
      </trkpt>
      <trkpt lat="37.80674" lon="69.67984">
        <ele>480.4</ele>
        <time>2018-08-18T02:30:30.000Z</time>
      </trkpt>
      <trkpt lat="37.80801" lon="69.6831">
        <ele>481</ele>
        <time>2018-08-18T02:31:31.000Z</time>
      </trkpt>
      <trkpt lat="37.80901" lon="69.68657">
        <ele>480.8</ele>
        <time>2018-08-18T02:32:32.000Z</time>
      </trkpt>
      <trkpt lat="37.81086" lon="69.68953">
        <ele>484.4</ele>
        <time>2018-08-18T02:33:33.000Z</time>
      </trkpt>
      <trkpt lat="37.81351" lon="69.69189">
        <ele>480.9</ele>
        <time>2018-08-18T02:34:34.000Z</time>
      </trkpt>
      <trkpt lat="37.81607" lon="69.69421">
        <ele>481.8</ele>
        <time>2018-08-18T02:35:35.000Z</time>
      </trkpt>
      <trkpt lat="37.81837" lon="69.69636">
        <ele>485.7</ele>
        <time>2018-08-18T02:36:36.000Z</time>
      </trkpt>
      <trkpt lat="37.82083" lon="69.69867">
        <ele>487.5</ele>
        <time>2018-08-18T02:37:37.000Z</time>
      </trkpt>
      <trkpt lat="37.82259" lon="69.7016">
        <ele>489.3</ele>
        <time>2018-08-18T02:38:37.000Z</time>
      </trkpt>
      <trkpt lat="37.82433" lon="69.70425">
        <ele>491.6</ele>
        <time>2018-08-18T02:39:38.000Z</time>
      </trkpt>
      <trkpt lat="37.82636" lon="69.70652">
        <ele>493.6</ele>
        <time>2018-08-18T02:40:39.000Z</time>
      </trkpt>
      <trkpt lat="37.82842" lon="69.70897">
        <ele>497.3</ele>
        <time>2018-08-18T02:41:40.000Z</time>
      </trkpt>
      <trkpt lat="37.83062" lon="69.71166">
        <ele>497.6</ele>
        <time>2018-08-18T02:42:41.000Z</time>
      </trkpt>
      <trkpt lat="37.83225" lon="69.71385">
        <ele>506</ele>
        <time>2018-08-18T02:43:42.000Z</time>
      </trkpt>
      <trkpt lat="37.83334" lon="69.71617">
        <ele>508.8</ele>
        <time>2018-08-18T02:44:43.000Z</time>
      </trkpt>
      <trkpt lat="37.83446" lon="69.71898">
        <ele>508.3</ele>
        <time>2018-08-18T02:45:44.000Z</time>
      </trkpt>
      <trkpt lat="37.83554" lon="69.7216">
        <ele>513</ele>
        <time>2018-08-18T02:46:45.000Z</time>
      </trkpt>
      <trkpt lat="37.83692" lon="69.72407">
        <ele>518</ele>
        <time>2018-08-18T02:47:45.000Z</time>
      </trkpt>
      <trkpt lat="37.83831" lon="69.72695">
        <ele>520.9</ele>
        <time>2018-08-18T02:48:46.000Z</time>
      </trkpt>
      <trkpt lat="37.83969" lon="69.72995">
        <ele>523.4</ele>
        <time>2018-08-18T02:49:47.000Z</time>
      </trkpt>
      <trkpt lat="37.8412" lon="69.73308">
        <ele>521.7</ele>
        <time>2018-08-18T02:50:48.000Z</time>
      </trkpt>
      <trkpt lat="37.84267" lon="69.73621">
        <ele>523.5</ele>
        <time>2018-08-18T02:51:49.000Z</time>
      </trkpt>
      <trkpt lat="37.84424" lon="69.73938">
        <ele>525.9</ele>
        <time>2018-08-18T02:52:49.000Z</time>
      </trkpt>
      <trkpt lat="37.84619" lon="69.74214">
        <ele>527.1</ele>
        <time>2018-08-18T02:53:50.000Z</time>
      </trkpt>
      <trkpt lat="37.84829" lon="69.74491">
        <ele>528.2</ele>
        <time>2018-08-18T02:54:51.000Z</time>
      </trkpt>
      <trkpt lat="37.85072" lon="69.74707">
        <ele>528.9</ele>
        <time>2018-08-18T02:55:52.000Z</time>
      </trkpt>
      <trkpt lat="37.85235" lon="69.74854">
        <ele>534.3</ele>
        <time>2018-08-18T02:56:53.000Z</time>
      </trkpt>
      <trkpt lat="37.85438" lon="69.7504">
        <ele>537.9</ele>
        <time>2018-08-18T02:57:53.000Z</time>
      </trkpt>
      <trkpt lat="37.85638" lon="69.75241">
        <ele>538.9</ele>
        <time>2018-08-18T02:58:54.000Z</time>
      </trkpt>
      <trkpt lat="37.85731" lon="69.75517">
        <ele>541.7</ele>
        <time>2018-08-18T02:59:55.000Z</time>
      </trkpt>
      <trkpt lat="37.85916" lon="69.75723">
        <ele>547.1</ele>
        <time>2018-08-18T03:00:56.000Z</time>
      </trkpt>
      <trkpt lat="37.86157" lon="69.75901">
        <ele>551</ele>
        <time>2018-08-18T03:01:57.000Z</time>
      </trkpt>
      <trkpt lat="37.86354" lon="69.76026">
        <ele>556.4</ele>
        <time>2018-08-18T03:02:58.000Z</time>
      </trkpt>
      <trkpt lat="37.86513" lon="69.76084">
        <ele>560.2</ele>
        <time>2018-08-18T03:03:58.000Z</time>
      </trkpt>
      <trkpt lat="37.86697" lon="69.76127">
        <ele>563.9</ele>
        <time>2018-08-18T03:04:59.000Z</time>
      </trkpt>
      <trkpt lat="37.86912" lon="69.76174">
        <ele>570.6</ele>
        <time>2018-08-18T03:06:00.000Z</time>
      </trkpt>
      <trkpt lat="37.87189" lon="69.76271">
        <ele>567.5</ele>
        <time>2018-08-18T03:07:01.000Z</time>
      </trkpt>
      <trkpt lat="37.87613" lon="69.76511">
        <ele>556.5</ele>
        <time>2018-08-18T03:08:02.000Z</time>
      </trkpt>
      <trkpt lat="37.87823" lon="69.76684">
        <ele>559</ele>
        <time>2018-08-18T03:09:03.000Z</time>
      </trkpt>
      <trkpt lat="37.88015" lon="69.76778">
        <ele>563.8</ele>
        <time>2018-08-18T03:10:04.000Z</time>
      </trkpt>
      <trkpt lat="37.88218" lon="69.76766">
        <ele>568.5</ele>
        <time>2018-08-18T03:11:04.000Z</time>
      </trkpt>
      <trkpt lat="37.88521" lon="69.7675">
        <ele>570.1</ele>
        <time>2018-08-18T03:12:05.000Z</time>
      </trkpt>
      <trkpt lat="37.88822" lon="69.76757">
        <ele>573.4</ele>
        <time>2018-08-18T03:13:06.000Z</time>
      </trkpt>
      <trkpt lat="37.89035" lon="69.76905">
        <ele>573.4</ele>
        <time>2018-08-18T03:14:07.000Z</time>
      </trkpt>
      <trkpt lat="37.89238" lon="69.77062">
        <ele>577.4</ele>
        <time>2018-08-18T03:15:07.000Z</time>
      </trkpt>
      <trkpt lat="37.89449" lon="69.77212">
        <ele>576.3</ele>
        <time>2018-08-18T03:16:08.000Z</time>
      </trkpt>
      <trkpt lat="37.89747" lon="69.77227">
        <ele>583.9</ele>
        <time>2018-08-18T03:17:09.000Z</time>
      </trkpt>
      <trkpt lat="37.9006" lon="69.77177">
        <ele>583.1</ele>
        <time>2018-08-18T03:18:10.000Z</time>
      </trkpt>
      <trkpt lat="37.90424" lon="69.7716">
        <ele>572.6</ele>
        <time>2018-08-18T03:19:11.000Z</time>
      </trkpt>
      <trkpt lat="37.90588" lon="69.77275">
        <ele>575.3</ele>
        <time>2018-08-18T03:20:12.000Z</time>
      </trkpt>
      <trkpt lat="37.90694" lon="69.77388">
        <ele>576</ele>
        <time>2018-08-18T03:23:39.000Z</time>
      </trkpt>
      <trkpt lat="37.90799" lon="69.77496">
        <ele>578.8</ele>
        <time>2018-08-18T03:39:06.000Z</time>
      </trkpt>
      <trkpt lat="37.90914" lon="69.77585">
        <ele>578.8</ele>
        <time>2018-08-18T03:49:19.000Z</time>
      </trkpt>
      <trkpt lat="37.91024" lon="69.77685">
        <ele>582</ele>
        <time>2018-08-18T03:52:54.000Z</time>
      </trkpt>
      <trkpt lat="37.91147" lon="69.77756">
        <ele>589.8</ele>
        <time>2018-08-18T03:56:31.000Z</time>
      </trkpt>
      <trkpt lat="37.91249" lon="69.77871">
        <ele>588.8</ele>
        <time>2018-08-18T04:37:38.000Z</time>
      </trkpt>
      <trkpt lat="37.91411" lon="69.78022">
        <ele>600.3</ele>
        <time>2018-08-18T04:38:39.000Z</time>
      </trkpt>
      <trkpt lat="37.91557" lon="69.78198">
        <ele>596.8</ele>
        <time>2018-08-18T04:39:40.000Z</time>
      </trkpt>
      <trkpt lat="37.91434" lon="69.78407">
        <ele>590.8</ele>
        <time>2018-08-18T04:40:41.000Z</time>
      </trkpt>
      <trkpt lat="37.91354" lon="69.78545">
        <ele>598.1</ele>
        <time>2018-08-18T04:41:47.000Z</time>
      </trkpt>
      <trkpt lat="37.91311" lon="69.78748">
        <ele>609.1</ele>
        <time>2018-08-18T04:42:48.000Z</time>
      </trkpt>
      <trkpt lat="37.91403" lon="69.78914">
        <ele>619.7</ele>
        <time>2018-08-18T04:43:49.000Z</time>
      </trkpt>
      <trkpt lat="37.91395" lon="69.79089">
        <ele>622.8</ele>
        <time>2018-08-18T04:48:23.000Z</time>
      </trkpt>
      <trkpt lat="37.91399" lon="69.79336">
        <ele>640.9</ele>
        <time>2018-08-18T04:49:24.000Z</time>
      </trkpt>
      <trkpt lat="37.91391" lon="69.7959">
        <ele>644.3</ele>
        <time>2018-08-18T04:50:25.000Z</time>
      </trkpt>
      <trkpt lat="37.91386" lon="69.79812">
        <ele>651.8</ele>
        <time>2018-08-18T04:51:26.000Z</time>
      </trkpt>
      <trkpt lat="37.91382" lon="69.80039">
        <ele>655.5</ele>
        <time>2018-08-18T04:52:27.000Z</time>
      </trkpt>
      <trkpt lat="37.91376" lon="69.80257">
        <ele>658.4</ele>
        <time>2018-08-18T04:53:28.000Z</time>
      </trkpt>
      <trkpt lat="37.91362" lon="69.80469">
        <ele>665.6</ele>
        <time>2018-08-18T04:54:29.000Z</time>
      </trkpt>
      <trkpt lat="37.91361" lon="69.80672">
        <ele>671.9</ele>
        <time>2018-08-18T04:55:30.000Z</time>
      </trkpt>
      <trkpt lat="37.91353" lon="69.80881">
        <ele>673.5</ele>
        <time>2018-08-18T04:56:31.000Z</time>
      </trkpt>
      <trkpt lat="37.91351" lon="69.81079">
        <ele>680.9</ele>
        <time>2018-08-18T04:57:32.000Z</time>
      </trkpt>
      <trkpt lat="37.91343" lon="69.81295">
        <ele>685.2</ele>
        <time>2018-08-18T04:58:33.000Z</time>
      </trkpt>
      <trkpt lat="37.9134" lon="69.81514">
        <ele>690.6</ele>
        <time>2018-08-18T04:59:34.000Z</time>
      </trkpt>
      <trkpt lat="37.91336" lon="69.81688">
        <ele>695.5</ele>
        <time>2018-08-18T05:00:46.000Z</time>
      </trkpt>
      <trkpt lat="37.91312" lon="69.81897">
        <ele>708.7</ele>
        <time>2018-08-18T05:01:47.000Z</time>
      </trkpt>
      <trkpt lat="37.9129" lon="69.82074">
        <ele>717.9</ele>
        <time>2018-08-18T05:02:48.000Z</time>
      </trkpt>
      <trkpt lat="37.91278" lon="69.82248">
        <ele>727.4</ele>
        <time>2018-08-18T05:04:09.000Z</time>
      </trkpt>
      <trkpt lat="37.91284" lon="69.82419">
        <ele>739.1</ele>
        <time>2018-08-18T05:05:28.000Z</time>
      </trkpt>
      <trkpt lat="37.913" lon="69.82589">
        <ele>742.2</ele>
        <time>2018-08-18T05:06:41.000Z</time>
      </trkpt>
      <trkpt lat="37.91324" lon="69.82759">
        <ele>752.4</ele>
        <time>2018-08-18T05:07:48.000Z</time>
      </trkpt>
      <trkpt lat="37.91348" lon="69.8293">
        <ele>757.7</ele>
        <time>2018-08-18T05:08:50.000Z</time>
      </trkpt>
      <trkpt lat="37.91393" lon="69.83199">
        <ele>751.7</ele>
        <time>2018-08-18T05:09:51.000Z</time>
      </trkpt>
      <trkpt lat="37.91454" lon="69.83451">
        <ele>759.3</ele>
        <time>2018-08-18T05:10:52.000Z</time>
      </trkpt>
      <trkpt lat="37.91491" lon="69.83618">
        <ele>768.7</ele>
        <time>2018-08-18T05:11:54.000Z</time>
      </trkpt>
      <trkpt lat="37.91497" lon="69.8379">
        <ele>773.8</ele>
        <time>2018-08-18T05:16:38.000Z</time>
      </trkpt>
      <trkpt lat="37.91482" lon="69.83961">
        <ele>783.5</ele>
        <time>2018-08-18T05:17:47.000Z</time>
      </trkpt>
      <trkpt lat="37.9147" lon="69.84225">
        <ele>788</ele>
        <time>2018-08-18T05:18:48.000Z</time>
      </trkpt>
      <trkpt lat="37.91505" lon="69.84587">
        <ele>791.5</ele>
        <time>2018-08-18T05:19:49.000Z</time>
      </trkpt>
      <trkpt lat="37.91555" lon="69.84858">
        <ele>797.5</ele>
        <time>2018-08-18T05:20:50.000Z</time>
      </trkpt>
      <trkpt lat="37.9155" lon="69.85052">
        <ele>803.7</ele>
        <time>2018-08-18T05:21:51.000Z</time>
      </trkpt>
      <trkpt lat="37.91506" lon="69.85278">
        <ele>809.3</ele>
        <time>2018-08-18T05:22:52.000Z</time>
      </trkpt>
      <trkpt lat="37.91462" lon="69.85524">
        <ele>815.3</ele>
        <time>2018-08-18T05:23:53.000Z</time>
      </trkpt>
      <trkpt lat="37.9143" lon="69.85796">
        <ele>822.1</ele>
        <time>2018-08-18T05:24:53.000Z</time>
      </trkpt>
      <trkpt lat="37.91347" lon="69.8607">
        <ele>824.3</ele>
        <time>2018-08-18T05:25:54.000Z</time>
      </trkpt>
      <trkpt lat="37.91254" lon="69.86284">
        <ele>830.4</ele>
        <time>2018-08-18T05:26:55.000Z</time>
      </trkpt>
      <trkpt lat="37.91157" lon="69.8647">
        <ele>839.6</ele>
        <time>2018-08-18T05:27:56.000Z</time>
      </trkpt>
      <trkpt lat="37.91042" lon="69.86643">
        <ele>852.7</ele>
        <time>2018-08-18T05:28:57.000Z</time>
      </trkpt>
      <trkpt lat="37.90955" lon="69.86774">
        <ele>857.5</ele>
        <time>2018-08-18T05:30:44.000Z</time>
      </trkpt>
      <trkpt lat="37.90877" lon="69.86921">
        <ele>862.1</ele>
        <time>2018-08-18T05:31:45.000Z</time>
      </trkpt>
      <trkpt lat="37.90812" lon="69.87073">
        <ele>867.6</ele>
        <time>2018-08-18T05:32:48.000Z</time>
      </trkpt>
      <trkpt lat="37.90753" lon="69.87229">
        <ele>867.6</ele>
        <time>2018-08-18T05:49:17.000Z</time>
      </trkpt>
      <trkpt lat="37.90691" lon="69.87411">
        <ele>875.2</ele>
        <time>2018-08-18T05:50:18.000Z</time>
      </trkpt>
      <trkpt lat="37.90636" lon="69.87568">
        <ele>883.2</ele>
        <time>2018-08-18T05:51:23.000Z</time>
      </trkpt>
      <trkpt lat="37.90587" lon="69.87728">
        <ele>891</ele>
        <time>2018-08-18T05:52:30.000Z</time>
      </trkpt>
      <trkpt lat="37.90528" lon="69.87882">
        <ele>897.7</ele>
        <time>2018-08-18T05:53:40.000Z</time>
      </trkpt>
      <trkpt lat="37.90475" lon="69.88041">
        <ele>904.4</ele>
        <time>2018-08-18T05:54:47.000Z</time>
      </trkpt>
      <trkpt lat="37.9042" lon="69.88199">
        <ele>910.5</ele>
        <time>2018-08-18T05:55:55.000Z</time>
      </trkpt>
      <trkpt lat="37.90366" lon="69.88357">
        <ele>923.9</ele>
        <time>2018-08-18T05:57:05.000Z</time>
      </trkpt>
      <trkpt lat="37.90312" lon="69.88515">
        <ele>931.7</ele>
        <time>2018-08-18T05:58:13.000Z</time>
      </trkpt>
      <trkpt lat="37.90256" lon="69.88673">
        <ele>941.7</ele>
        <time>2018-08-18T05:59:22.000Z</time>
      </trkpt>
      <trkpt lat="37.90202" lon="69.88832">
        <ele>950.7</ele>
        <time>2018-08-18T06:00:32.000Z</time>
      </trkpt>
      <trkpt lat="37.9015" lon="69.88991">
        <ele>957.7</ele>
        <time>2018-08-18T06:01:43.000Z</time>
      </trkpt>
      <trkpt lat="37.90106" lon="69.89153">
        <ele>969.7</ele>
        <time>2018-08-18T06:02:56.000Z</time>
      </trkpt>
      <trkpt lat="37.90061" lon="69.89316">
        <ele>978.9</ele>
        <time>2018-08-18T06:04:15.000Z</time>
      </trkpt>
      <trkpt lat="37.90021" lon="69.8948">
        <ele>984.9</ele>
        <time>2018-08-18T06:05:33.000Z</time>
      </trkpt>
      <trkpt lat="37.89983" lon="69.89644">
        <ele>994.8</ele>
        <time>2018-08-18T06:06:58.000Z</time>
      </trkpt>
      <trkpt lat="37.89954" lon="69.89812">
        <ele>1006.2</ele>
        <time>2018-08-18T06:08:22.000Z</time>
      </trkpt>
      <trkpt lat="37.89924" lon="69.89981">
        <ele>1017.1</ele>
        <time>2018-08-18T06:09:46.000Z</time>
      </trkpt>
      <trkpt lat="37.89895" lon="69.90149">
        <ele>1028.4</ele>
        <time>2018-08-18T06:11:11.000Z</time>
      </trkpt>
      <trkpt lat="37.89865" lon="69.90317">
        <ele>1039.5</ele>
        <time>2018-08-18T06:12:38.000Z</time>
      </trkpt>
      <trkpt lat="37.89836" lon="69.90484">
        <ele>1047.2</ele>
        <time>2018-08-18T06:14:05.000Z</time>
      </trkpt>
      <trkpt lat="37.89808" lon="69.90651">
        <ele>1063</ele>
        <time>2018-08-18T06:15:34.000Z</time>
      </trkpt>
      <trkpt lat="37.89776" lon="69.90819">
        <ele>1069.5</ele>
        <time>2018-08-18T06:17:04.000Z</time>
      </trkpt>
      <trkpt lat="37.89709" lon="69.9097">
        <ele>1071.6</ele>
        <time>2018-08-18T06:39:33.000Z</time>
      </trkpt>
      <trkpt lat="37.89624" lon="69.91104">
        <ele>1084.8</ele>
        <time>2018-08-18T06:40:51.000Z</time>
      </trkpt>
      <trkpt lat="37.89537" lon="69.91237">
        <ele>1095.1</ele>
        <time>2018-08-18T06:42:15.000Z</time>
      </trkpt>
      <trkpt lat="37.89452" lon="69.9137">
        <ele>1103.2</ele>
        <time>2018-08-18T06:43:41.000Z</time>
      </trkpt>
      <trkpt lat="37.89363" lon="69.915">
        <ele>1114.4</ele>
        <time>2018-08-18T06:45:15.000Z</time>
      </trkpt>
      <trkpt lat="37.89278" lon="69.91634">
        <ele>1124.5</ele>
        <time>2018-08-18T06:46:49.000Z</time>
      </trkpt>
      <trkpt lat="37.89188" lon="69.91763">
        <ele>1137.2</ele>
        <time>2018-08-18T06:49:28.000Z</time>
      </trkpt>
      <trkpt lat="37.89095" lon="69.91886">
        <ele>1145.5</ele>
        <time>2018-08-18T06:50:44.000Z</time>
      </trkpt>
      <trkpt lat="37.88997" lon="69.92005">
        <ele>1154.8</ele>
        <time>2018-08-18T06:52:05.000Z</time>
      </trkpt>
      <trkpt lat="37.88896" lon="69.92118">
        <ele>1163</ele>
        <time>2018-08-18T06:53:26.000Z</time>
      </trkpt>
      <trkpt lat="37.88796" lon="69.92235">
        <ele>1174.1</ele>
        <time>2018-08-18T06:54:50.000Z</time>
      </trkpt>
      <trkpt lat="37.88728" lon="69.92383">
        <ele>1185.5</ele>
        <time>2018-08-18T06:56:12.000Z</time>
      </trkpt>
      <trkpt lat="37.88656" lon="69.92529">
        <ele>1188.3</ele>
        <time>2018-08-18T06:57:35.000Z</time>
      </trkpt>
      <trkpt lat="37.88588" lon="69.92678">
        <ele>1202.5</ele>
        <time>2018-08-18T06:59:08.000Z</time>
      </trkpt>
      <trkpt lat="37.88495" lon="69.92802">
        <ele>1210.5</ele>
        <time>2018-08-18T07:00:35.000Z</time>
      </trkpt>
      <trkpt lat="37.88373" lon="69.92879">
        <ele>1216.9</ele>
        <time>2018-08-18T07:01:57.000Z</time>
      </trkpt>
      <trkpt lat="37.88253" lon="69.92957">
        <ele>1226.2</ele>
        <time>2018-08-18T07:03:20.000Z</time>
      </trkpt>
      <trkpt lat="37.88146" lon="69.93064">
        <ele>1234.8</ele>
        <time>2018-08-18T07:04:57.000Z</time>
      </trkpt>
      <trkpt lat="37.8811" lon="69.9323">
        <ele>1243.8</ele>
        <time>2018-08-18T07:06:41.000Z</time>
      </trkpt>
      <trkpt lat="37.88129" lon="69.93399">
        <ele>1248.6</ele>
        <time>2018-08-18T07:08:20.000Z</time>
      </trkpt>
      <trkpt lat="37.88155" lon="69.93568">
        <ele>1260.2</ele>
        <time>2018-08-18T07:09:59.000Z</time>
      </trkpt>
      <trkpt lat="37.88183" lon="69.93737">
        <ele>1271.6</ele>
        <time>2018-08-18T07:11:42.000Z</time>
      </trkpt>
      <trkpt lat="37.88208" lon="69.93906">
        <ele>1284</ele>
        <time>2018-08-18T07:13:29.000Z</time>
      </trkpt>
      <trkpt lat="37.88222" lon="69.94077">
        <ele>1297.7</ele>
        <time>2018-08-18T07:15:13.000Z</time>
      </trkpt>
      <trkpt lat="37.88121" lon="69.94192">
        <ele>1307</ele>
        <time>2018-08-18T07:17:01.000Z</time>
      </trkpt>
      <trkpt lat="37.87987" lon="69.94221">
        <ele>1316.4</ele>
        <time>2018-08-18T07:18:36.000Z</time>
      </trkpt>
      <trkpt lat="37.87854" lon="69.94254">
        <ele>1327</ele>
        <time>2018-08-18T07:19:53.000Z</time>
      </trkpt>
      <trkpt lat="37.8776" lon="69.94377">
        <ele>1337.5</ele>
        <time>2018-08-18T07:21:31.000Z</time>
      </trkpt>
      <trkpt lat="37.87787" lon="69.94545">
        <ele>1349.6</ele>
        <time>2018-08-18T07:23:14.000Z</time>
      </trkpt>
      <trkpt lat="37.87829" lon="69.94709">
        <ele>1360.2</ele>
        <time>2018-08-18T07:24:50.000Z</time>
      </trkpt>
      <trkpt lat="37.87936" lon="69.94813">
        <ele>1366.3</ele>
        <time>2018-08-18T07:26:06.000Z</time>
      </trkpt>
      <trkpt lat="37.88063" lon="69.94871">
        <ele>1373.5</ele>
        <time>2018-08-18T07:27:20.000Z</time>
      </trkpt>
      <trkpt lat="37.8819" lon="69.94932">
        <ele>1382.5</ele>
        <time>2018-08-18T07:28:51.000Z</time>
      </trkpt>
      <trkpt lat="37.88263" lon="69.95076">
        <ele>1406.9</ele>
        <time>2018-08-18T08:02:27.000Z</time>
      </trkpt>
      <trkpt lat="37.88244" lon="69.95247">
        <ele>1424.3</ele>
        <time>2018-08-18T08:04:16.000Z</time>
      </trkpt>
      <trkpt lat="37.88341" lon="69.95368">
        <ele>1429.6</ele>
        <time>2018-08-18T08:06:33.000Z</time>
      </trkpt>
      <trkpt lat="37.88475" lon="69.95339">
        <ele>1443.8</ele>
        <time>2018-08-18T08:08:09.000Z</time>
      </trkpt>
      <trkpt lat="37.88609" lon="69.95365">
        <ele>1459.2</ele>
        <time>2018-08-18T08:10:03.000Z</time>
      </trkpt>
      <trkpt lat="37.88573" lon="69.9553">
        <ele>1475.9</ele>
        <time>2018-08-18T08:12:14.000Z</time>
      </trkpt>
      <trkpt lat="37.88508" lon="69.95682">
        <ele>1490.2</ele>
        <time>2018-08-18T08:14:08.000Z</time>
      </trkpt>
      <trkpt lat="37.8848" lon="69.9585">
        <ele>1502.7</ele>
        <time>2018-08-18T08:15:56.000Z</time>
      </trkpt>
      <trkpt lat="37.88383" lon="69.9597">
        <ele>1511.8</ele>
        <time>2018-08-18T08:17:46.000Z</time>
      </trkpt>
      <trkpt lat="37.88274" lon="69.9607">
        <ele>1521.3</ele>
        <time>2018-08-18T08:19:34.000Z</time>
      </trkpt>
      <trkpt lat="37.88185" lon="69.96199">
        <ele>1539.8</ele>
        <time>2018-08-18T08:21:31.000Z</time>
      </trkpt>
      <trkpt lat="37.88164" lon="69.96369">
        <ele>1554.9</ele>
        <time>2018-08-18T08:23:29.000Z</time>
      </trkpt>
      <trkpt lat="37.88154" lon="69.96541">
        <ele>1565.6</ele>
        <time>2018-08-18T08:31:04.000Z</time>
      </trkpt>
      <trkpt lat="37.88031" lon="69.96613">
        <ele>1577.3</ele>
        <time>2018-08-18T08:33:00.000Z</time>
      </trkpt>
      <trkpt lat="37.87902" lon="69.96661">
        <ele>1587</ele>
        <time>2018-08-18T08:34:44.000Z</time>
      </trkpt>
      <trkpt lat="37.87786" lon="69.96748">
        <ele>1599</ele>
        <time>2018-08-18T08:36:28.000Z</time>
      </trkpt>
      <trkpt lat="37.87655" lon="69.9679">
        <ele>1604</ele>
        <time>2018-08-18T09:01:50.000Z</time>
      </trkpt>
      <trkpt lat="37.87529" lon="69.96853">
        <ele>1618</ele>
        <time>2018-08-18T09:03:18.000Z</time>
      </trkpt>
      <trkpt lat="37.87551" lon="69.97022">
        <ele>1628.5</ele>
        <time>2018-08-18T09:04:43.000Z</time>
      </trkpt>
      <trkpt lat="37.87529" lon="69.97192">
        <ele>1642.4</ele>
        <time>2018-08-18T09:06:33.000Z</time>
      </trkpt>
      <trkpt lat="37.8763" lon="69.97305">
        <ele>1651</ele>
        <time>2018-08-18T09:08:16.000Z</time>
      </trkpt>
      <trkpt lat="37.87578" lon="69.97463">
        <ele>1669.9</ele>
        <time>2018-08-18T09:10:07.000Z</time>
      </trkpt>
      <trkpt lat="37.87646" lon="69.97611">
        <ele>1678.4</ele>
        <time>2018-08-18T09:12:08.000Z</time>
      </trkpt>
      <trkpt lat="37.87777" lon="69.97653">
        <ele>1692.2</ele>
        <time>2018-08-18T09:14:08.000Z</time>
      </trkpt>
      <trkpt lat="37.87706" lon="69.97799">
        <ele>1709.1</ele>
        <time>2018-08-18T09:16:00.000Z</time>
      </trkpt>
      <trkpt lat="37.87638" lon="69.97948">
        <ele>1722.1</ele>
        <time>2018-08-18T09:17:52.000Z</time>
      </trkpt>
      <trkpt lat="37.87736" lon="69.98067">
        <ele>1735.4</ele>
        <time>2018-08-18T09:23:15.000Z</time>
      </trkpt>
      <trkpt lat="37.87849" lon="69.98162">
        <ele>1752.1</ele>
        <time>2018-08-18T09:25:00.000Z</time>
      </trkpt>
      <trkpt lat="37.87978" lon="69.98213">
        <ele>1761.3</ele>
        <time>2018-08-18T09:26:55.000Z</time>
      </trkpt>
      <trkpt lat="37.8811" lon="69.98257">
        <ele>1773.8</ele>
        <time>2018-08-18T09:28:50.000Z</time>
      </trkpt>
      <trkpt lat="37.88233" lon="69.98327">
        <ele>1785.5</ele>
        <time>2018-08-18T09:30:43.000Z</time>
      </trkpt>
      <trkpt lat="37.88367" lon="69.98353">
        <ele>1798.3</ele>
        <time>2018-08-18T09:32:30.000Z</time>
      </trkpt>
      <trkpt lat="37.88287" lon="69.98493">
        <ele>1809.7</ele>
        <time>2018-08-18T09:48:27.000Z</time>
      </trkpt>
      <trkpt lat="37.88226" lon="69.98646">
        <ele>1818.5</ele>
        <time>2018-08-18T09:49:55.000Z</time>
      </trkpt>
      <trkpt lat="37.88236" lon="69.98817">
        <ele>1836</ele>
        <time>2018-08-18T09:51:46.000Z</time>
      </trkpt>
      <trkpt lat="37.88321" lon="69.98952">
        <ele>1850.3</ele>
        <time>2018-08-18T09:53:34.000Z</time>
      </trkpt>
      <trkpt lat="37.88205" lon="69.99043">
        <ele>1858.9</ele>
        <time>2018-08-18T09:56:32.000Z</time>
      </trkpt>
      <trkpt lat="37.88075" lon="69.99089">
        <ele>1875.5</ele>
        <time>2018-08-18T09:58:06.000Z</time>
      </trkpt>
      <trkpt lat="37.87983" lon="69.99214">
        <ele>1895.4</ele>
        <time>2018-08-18T09:59:55.000Z</time>
      </trkpt>
      <trkpt lat="37.87876" lon="69.99319">
        <ele>1899.3</ele>
        <time>2018-08-18T10:02:11.000Z</time>
      </trkpt>
      <trkpt lat="37.87838" lon="69.99484">
        <ele>1910.7</ele>
        <time>2018-08-18T10:03:50.000Z</time>
      </trkpt>
      <trkpt lat="37.87704" lon="69.99502">
        <ele>1917.2</ele>
        <time>2018-08-18T10:05:36.000Z</time>
      </trkpt>
      <trkpt lat="37.87578" lon="69.99434">
        <ele>1921.4</ele>
        <time>2018-08-18T10:07:27.000Z</time>
      </trkpt>
      <trkpt lat="37.87443" lon="69.99423">
        <ele>1926</ele>
        <time>2018-08-18T10:10:05.000Z</time>
      </trkpt>
      <trkpt lat="37.87323" lon="69.99342">
        <ele>1944.5</ele>
        <time>2018-08-18T10:11:45.000Z</time>
      </trkpt>
      <trkpt lat="37.87258" lon="69.99192">
        <ele>1959.2</ele>
        <time>2018-08-18T10:13:35.000Z</time>
      </trkpt>
      <trkpt lat="37.87122" lon="69.99195">
        <ele>1971.8</ele>
        <time>2018-08-18T10:15:19.000Z</time>
      </trkpt>
      <trkpt lat="37.87014" lon="69.99298">
        <ele>1969.5</ele>
        <time>2018-08-18T10:37:38.000Z</time>
      </trkpt>
      <trkpt lat="37.86902" lon="69.994">
        <ele>1971.8</ele>
        <time>2018-08-18T10:38:43.000Z</time>
      </trkpt>
      <trkpt lat="37.86797" lon="69.9951">
        <ele>1970</ele>
        <time>2018-08-18T10:39:48.000Z</time>
      </trkpt>
      <trkpt lat="37.86706" lon="69.99776">
        <ele>1968</ele>
        <time>2018-08-18T10:40:48.000Z</time>
      </trkpt>
      <trkpt lat="37.86751" lon="69.99614">
        <ele>1966</ele>
        <time>2018-08-18T10:42:17.000Z</time>
      </trkpt>
      <trkpt lat="37.86885" lon="69.99414">
        <ele>1968</ele>
        <time>2018-08-18T10:43:18.000Z</time>
      </trkpt>
      <trkpt lat="37.86828" lon="69.9957">
        <ele>1979.3</ele>
        <time>2018-08-18T10:45:24.000Z</time>
      </trkpt>
      <trkpt lat="37.86802" lon="69.9974">
        <ele>1980.9</ele>
        <time>2018-08-18T10:46:34.000Z</time>
      </trkpt>
      <trkpt lat="37.86792" lon="69.99912">
        <ele>1984.4</ele>
        <time>2018-08-18T10:47:40.000Z</time>
      </trkpt>
      <trkpt lat="37.86808" lon="70.00082">
        <ele>1985</ele>
        <time>2018-08-18T10:48:47.000Z</time>
      </trkpt>
      <trkpt lat="37.86908" lon="70.002">
        <ele>1986.9</ele>
        <time>2018-08-18T10:49:50.000Z</time>
      </trkpt>
      <trkpt lat="37.87134" lon="70.00206">
        <ele>1978.6</ele>
        <time>2018-08-18T10:50:51.000Z</time>
      </trkpt>
      <trkpt lat="37.86938" lon="70.00428">
        <ele>1965.8</ele>
        <time>2018-08-18T10:51:52.000Z</time>
      </trkpt>
      <trkpt lat="37.86728" lon="70.00527">
        <ele>1962.9</ele>
        <time>2018-08-18T10:52:53.000Z</time>
      </trkpt>
      <trkpt lat="37.86549" lon="70.00574">
        <ele>1958.9</ele>
        <time>2018-08-18T10:53:53.000Z</time>
      </trkpt>
      <trkpt lat="37.86474" lon="70.00726">
        <ele>1957</ele>
        <time>2018-08-18T10:54:54.000Z</time>
      </trkpt>
      <trkpt lat="37.86514" lon="70.00891">
        <ele>1952.9</ele>
        <time>2018-08-18T11:07:13.000Z</time>
      </trkpt>
      <trkpt lat="37.86596" lon="70.01044">
        <ele>1955.3</ele>
        <time>2018-08-18T11:08:14.000Z</time>
      </trkpt>
      <trkpt lat="37.86639" lon="70.01206">
        <ele>1960.5</ele>
        <time>2018-08-18T11:15:09.000Z</time>
      </trkpt>
      <trkpt lat="37.86595" lon="70.01401">
        <ele>1960.5</ele>
        <time>2018-08-18T11:16:10.000Z</time>
      </trkpt>
      <trkpt lat="37.86545" lon="70.01634">
        <ele>1960.9</ele>
        <time>2018-08-18T11:17:11.000Z</time>
      </trkpt>
      <trkpt lat="37.86506" lon="70.01798">
        <ele>1953.2</ele>
        <time>2018-08-18T11:18:12.000Z</time>
      </trkpt>
      <trkpt lat="37.86449" lon="70.01954">
        <ele>1950.4</ele>
        <time>2018-08-18T11:31:03.000Z</time>
      </trkpt>
      <trkpt lat="37.86355" lon="70.0208">
        <ele>1946.6</ele>
        <time>2018-08-18T11:33:02.000Z</time>
      </trkpt>
      <trkpt lat="37.86199" lon="70.02235">
        <ele>1947.3</ele>
        <time>2018-08-18T11:34:03.000Z</time>
      </trkpt>
      <trkpt lat="37.86068" lon="70.02372">
        <ele>1947</ele>
        <time>2018-08-18T11:35:03.000Z</time>
      </trkpt>
      <trkpt lat="37.85949" lon="70.02454">
        <ele>1944.5</ele>
        <time>2018-08-18T11:37:27.000Z</time>
      </trkpt>
      <trkpt lat="37.85836" lon="70.02554">
        <ele>1945.2</ele>
        <time>2018-08-18T11:39:42.000Z</time>
      </trkpt>
      <trkpt lat="37.8566" lon="70.02782">
        <ele>1945.1</ele>
        <time>2018-08-18T11:40:43.000Z</time>
      </trkpt>
      <trkpt lat="37.85512" lon="70.03023">
        <ele>1950.7</ele>
        <time>2018-08-18T11:41:44.000Z</time>
      </trkpt>
      <trkpt lat="37.85353" lon="70.03281">
        <ele>1952.9</ele>
        <time>2018-08-18T11:42:45.000Z</time>
      </trkpt>
      <trkpt lat="37.85265" lon="70.03411">
        <ele>1957.8</ele>
        <time>2018-08-18T11:43:45.000Z</time>
      </trkpt>
    </trkseg>
  </trk>
</gpx>